ΕΜΥ, Εθνική Μετεωρολογική Υπηρεσία - Δελτία Καιρού, Προγνώσεις

ΑΕΡΟΝΑΥΤΙΛΙΑ

GREEK AIRPORTS CODES

LGKL 111820Z 36006KT 9999 FEW030 SCT080 28/12 Q1011=

EUROPEAN AIRPORTS CODES

LFPO 111830Z AUTO 09009KT CAVOK 30/08 Q1016 NOSIG=